Herlong Airport


Codes: KHEG/
Name: Herlong Airport
City: Jacksonville
Country: United States
Elevation: 87 ft.

Photos at Herlong Airport


   Photos courtesy of SpottingLog. You can add your own sightings and photos by signing up for a free trial today.



No photos found.

Weather at Herlong Airport


Time (UTC)DescriptionTempratureWindCloud coverageVisibilityPressureHumidity
21-Feb-2024 03:00Clear Sky11°C2 mph, NE1%10000m1025hPa63%
21-Feb-2024 06:00Clear Sky10°C4 mph, NE1%10000m1025hPa66%
21-Feb-2024 09:00Clear Sky9°C4 mph, N0%10000m1025hPa70%
21-Feb-2024 12:00Clear Sky8°C4 mph, N0%10000m1026hPa77%
21-Feb-2024 15:00Clear Sky14°C7 mph, NE0%10000m1027hPa44%
21-Feb-2024 18:00Clear Sky18°C9 mph, NE0%10000m1026hPa28%
21-Feb-2024 21:00Clear Sky18°C9 mph, NE0%10000m1024hPa29%
22-Feb-2024 00:00Clear Sky12°C7 mph, E1%10000m1024hPa44%
22-Feb-2024 03:00Scattered Clouds11°C4 mph, E37%10000m1024hPa57%
22-Feb-2024 06:00Scattered Clouds10°C2 mph, E40%10000m1023hPa62%
22-Feb-2024 09:00Scattered Clouds9°C2 mph, NE31%10000m1022hPa66%
22-Feb-2024 12:00Scattered Clouds8°C2 mph, N26%10000m1022hPa69%
22-Feb-2024 15:00Clear Sky16°C2 mph, SE2%10000m1022hPa43%
22-Feb-2024 18:00Clear Sky21°C7 mph, S1%10000m1018hPa27%
22-Feb-2024 21:00Clear Sky22°C9 mph, SW0%10000m1015hPa25%
23-Feb-2024 00:00Clear Sky17°C9 mph, SW0%10000m1014hPa41%
23-Feb-2024 03:00Clear Sky13°C7 mph, SW0%10000m1014hPa53%
23-Feb-2024 06:00Few Clouds13°C7 mph, SW16%10000m1013hPa76%
23-Feb-2024 09:00Broken Clouds14°C9 mph, SW67%10000m1010hPa80%
23-Feb-2024 12:00Broken Clouds15°C9 mph, SW83%10000m1009hPa82%
23-Feb-2024 15:00Broken Clouds18°C13 mph, SW77%10000m1009hPa78%
23-Feb-2024 18:00Light Rain21°C16 mph, SW86%10000m1006hPa70%
23-Feb-2024 21:00Light Rain21°C11 mph, W98%7972m1005hPa74%
24-Feb-2024 00:00Light Rain17°C7 mph, W99%10000m1007hPa86%
24-Feb-2024 03:00Scattered Clouds15°C7 mph, W45%10000m1009hPa90%
24-Feb-2024 06:00Few Clouds13°C9 mph, NW24%10000m1011hPa77%
24-Feb-2024 09:00Overcast Clouds11°C7 mph, NW91%10000m1012hPa73%
24-Feb-2024 12:00Overcast Clouds10°C7 mph, NW93%10000m1014hPa74%
24-Feb-2024 15:00Broken Clouds14°C9 mph, NW82%10000m1017hPa42%
24-Feb-2024 18:00Broken Clouds19°C11 mph, NW74%10000m1015hPa25%
24-Feb-2024 21:00Clear Sky20°C13 mph, NW10%10000m1015hPa26%
25-Feb-2024 00:00Clear Sky16°C7 mph, W8%10000m1017hPa42%
25-Feb-2024 03:00Clear Sky13°C7 mph, W5%10000m1019hPa53%
25-Feb-2024 06:00Clear Sky11°C7 mph, W5%10000m1020hPa69%
25-Feb-2024 09:00Clear Sky10°C4 mph, NW3%10000m1021hPa64%
25-Feb-2024 12:00Clear Sky8°C4 mph, N2%10000m1022hPa68%
25-Feb-2024 15:00Clear Sky15°C2 mph, N0%10000m1024hPa38%
25-Feb-2024 18:00Clear Sky20°C2 mph, W0%10000m1022hPa20%
25-Feb-2024 21:00Clear Sky21°C4 mph, W1%10000m1021hPa19%
26-Feb-2024 00:00Clear Sky16°C2 mph, SE3%10000m1022hPa35%